Time;durP1;ratioP1;P1;durP2;ratioP2;P2;SDS_P1;SDS_P2;PMS_P1;PMS_P2;Temp;Humidity;BMP_temperature;BMP_pressure;BME280_temperature;BME280_humidity;BME280_pressure;Samples;Min_cycle;Max_cycle;Signal;HPM_P1;HPM_P2
2022/03/19 00:00:50;;;;;;;11.00;6.18;;;7.80;93.00;;;;;;5054819;28;20102;-72
2022/03/19 00:03:16;;;;;;;10.70;6.00;;;7.80;93.00;;;;;;5037537;28;20397;-71
2022/03/19 00:05:41;;;;;;;10.57;6.03;;;7.80;93.20;;;;;;5055110;28;20053;-70
2022/03/19 00:08:07;;;;;;;9.50;5.53;;;7.80;93.40;;;;;;5055367;28;20029;-69
2022/03/19 00:10:33;;;;;;;8.75;5.38;;;7.70;93.60;;;;;;5037384;28;20033;-69
2022/03/19 00:12:59;;;;;;;8.93;5.50;;;7.70;93.70;;;;;;5055513;28;20421;-70
2022/03/19 00:15:25;;;;;;;9.63;5.32;;;7.70;94.30;;;;;;5055148;28;20500;-71
2022/03/19 00:17:52;;;;;;;14.60;7.72;;;7.60;94.20;;;;;;5055723;28;20049;-69
2022/03/19 00:20:18;;;;;;;8.48;4.97;;;7.60;94.30;;;;;;5055093;28;20028;-70
2022/03/19 00:22:44;;;;;;;9.85;5.45;;;7.60;94.60;;;;;;5055322;28;20025;-71
2022/03/19 00:25:12;;;;;;;10.07;5.78;;;7.60;94.70;;;;;;5055004;28;20025;-70
2022/03/19 00:27:39;;;;;;;9.48;4.65;;;7.50;95.10;;;;;;5054875;28;20025;-71
2022/03/19 00:30:05;;;;;;;8.25;5.47;;;7.40;95.30;;;;;;5037069;28;20057;-69
2022/03/19 00:32:31;;;;;;;8.48;4.85;;;7.40;95.40;;;;;;5054875;28;20028;-69
2022/03/19 00:34:57;;;;;;;7.03;4.63;;;7.40;95.40;;;;;;5055331;28;20028;-71
2022/03/19 00:37:23;;;;;;;9.23;4.57;;;7.30;95.70;;;;;;5054804;28;20025;-70
2022/03/19 00:39:49;;;;;;;9.63;4.78;;;7.30;95.90;;;;;;5054751;28;20500;-70
2022/03/19 00:42:15;;;;;;;9.10;5.00;;;7.30;95.90;;;;;;5054679;28;20025;-70
2022/03/19 00:44:40;;;;;;;7.20;4.50;;;7.30;95.80;;;;;;5054600;28;20032;-70
2022/03/19 00:47:06;;;;;;;9.68;4.60;;;7.30;95.60;;;;;;5054513;28;20035;-70
2022/03/19 00:49:32;;;;;;;7.15;4.80;;;7.30;95.60;;;;;;5054533;28;20032;-72
2022/03/19 00:51:57;;;;;;;8.57;4.85;;;7.30;95.80;;;;;;5054485;28;20028;-71
2022/03/19 00:54:23;;;;;;;8.60;4.78;;;7.30;95.80;;;;;;5054409;28;20029;-71
2022/03/19 00:56:49;;;;;;;8.73;4.90;;;7.30;95.90;;;;;;5054320;28;20028;-69
2022/03/19 00:59:15;;;;;;;8.65;5.07;;;7.20;96.10;;;;;;5036469;28;20565;-71
2022/03/19 01:01:41;;;;;;;7.63;4.75;;;7.10;96.60;;;;;;5054341;28;20140;-71
2022/03/19 01:04:06;;;;;;;9.20;4.45;;;7.10;96.70;;;;;;5054812;28;20107;-70
2022/03/19 01:06:32;;;;;;;9.18;4.80;;;7.10;96.90;;;;;;5053854;28;20116;-69
2022/03/19 01:08:58;;;;;;;8.63;5.03;;;7.10;97.00;;;;;;5053881;28;20052;-70
2022/03/19 01:11:23;;;;;;;6.97;4.47;;;7.00;97.10;;;;;;5053679;28;20079;-70
2022/03/19 01:13:58;;;;;;;7.50;4.80;;;6.90;97.40;;;;;;5054087;28;20032;-70
2022/03/19 01:16:27;;;;;;;12.32;4.88;;;6.90;97.50;;;;;;5054301;28;20025;-71
2022/03/19 01:18:52;;;;;;;8.43;4.60;;;6.90;97.80;;;;;;5054521;28;20106;-71
2022/03/19 01:21:18;;;;;;;8.55;4.90;;;6.80;97.90;;;;;;5054209;28;20105;-70
2022/03/19 01:23:44;;;;;;;7.88;4.50;;;6.80;98.20;;;;;;5054416;28;20032;-70
2022/03/19 01:26:10;;;;;;;9.07;4.78;;;6.80;98.40;;;;;;5053742;28;20387;-71
2022/03/19 01:28:36;;;;;;;8.40;4.80;;;6.70;98.70;;;;;;5053749;28;20025;-70
2022/03/19 01:31:02;;;;;;;7.25;4.57;;;6.70;98.70;;;;;;5054019;28;20447;-71
2022/03/19 01:33:28;;;;;;;10.20;4.82;;;6.60;98.90;;;;;;5053679;28;20441;-70
2022/03/19 01:35:54;;;;;;;8.93;4.82;;;6.60;99.20;;;;;;5053641;28;20021;-71
2022/03/19 01:38:19;;;;;;;8.63;4.88;;;6.60;99.40;;;;;;5053943;28;20151;-71
2022/03/19 01:40:45;;;;;;;8.20;4.70;;;6.50;99.60;;;;;;5053604;28;20100;-69
2022/03/19 01:43:11;;;;;;;8.73;4.82;;;6.40;99.70;;;;;;5053857;28;20040;-70
2022/03/19 01:45:37;;;;;;;11.82;5.45;;;6.50;99.70;;;;;;5053681;28;20024;-70
2022/03/19 01:48:03;;;;;;;8.00;4.60;;;6.50;99.60;;;;;;5053497;28;20021;-70
2022/03/19 01:50:29;;;;;;;7.32;4.35;;;6.40;99.60;;;;;;5053411;28;20025;-70
2022/03/19 01:52:56;;;;;;;7.60;4.75;;;6.40;99.90;;;;;;5053468;28;20025;-71
2022/03/19 01:55:23;;;;;;;9.05;5.20;;;6.40;99.80;;;;;;5053322;28;20025;-70
2022/03/19 01:57:50;;;;;;;11.40;5.13;;;6.40;99.70;;;;;;5053415;28;20075;-71
2022/03/19 02:00:22;;;;;;;8.20;4.47;;;6.50;99.50;;;;;;5053367;28;20017;-71
2022/03/19 02:02:49;;;;;;;8.93;4.47;;;6.50;99.50;;;;;;5053895;28;20032;-71
2022/03/19 02:05:17;;;;;;;8.95;4.55;;;6.50;99.40;;;;;;5052915;28;20072;-70
2022/03/19 02:07:44;;;;;;;8.18;3.83;;;6.60;98.90;;;;;;5053459;28;20029;-70
2022/03/19 02:10:11;;;;;;;7.72;4.10;;;6.60;98.60;;;;;;5053203;28;20017;-70
2022/03/19 02:12:37;;;;;;;7.82;4.30;;;6.60;98.50;;;;;;5053409;28;20052;-71
2022/03/19 02:15:04;;;;;;;8.50;4.13;;;6.60;98.90;;;;;;5053119;28;20565;-70
2022/03/19 02:17:30;;;;;;;6.88;4.20;;;6.70;98.10;;;;;;5053138;28;20056;-71
2022/03/19 02:19:56;;;;;;;6.80;4.10;;;6.70;98.10;;;;;;5053359;28;20036;-71
2022/03/19 02:22:26;;;;;;;9.77;4.38;;;6.70;98.10;;;;;;5053071;28;20021;-70
2022/03/19 02:27:37;;;;;;;7.93;3.72;;;6.70;97.90;;;;;;5056929;28;20032;-70
2022/03/19 02:30:05;;;;;;;5.85;3.55;;;6.70;97.90;;;;;;5057174;28;20444;-70
2022/03/19 02:32:30;;;;;;;7.93;3.78;;;6.80;97.50;;;;;;5057319;28;20021;-70
2022/03/19 02:34:56;;;;;;;6.95;3.35;;;6.90;97.30;;;;;;5057083;28;20534;-71
2022/03/19 02:37:22;;;;;;;7.38;3.33;;;7.00;96.90;;;;;;5057041;28;20456;-70
2022/03/19 02:39:48;;;;;;;6.43;3.38;;;7.10;96.50;;;;;;5057257;28;20496;-70
2022/03/19 02:42:20;;;;;;;7.35;3.58;;;7.30;96.20;;;;;;5056981;28;20025;-70
2022/03/19 02:44:46;;;;;;;8.45;3.35;;;7.30;95.90;;;;;;5057136;28;20025;-71
2022/03/19 02:47:13;;;;;;;7.68;3.70;;;7.50;95.80;;;;;;5056552;28;20056;-71
2022/03/19 02:49:38;;;;;;;6.57;3.10;;;7.40;95.90;;;;;;5056848;28;20482;-71
2022/03/19 02:52:05;;;;;;;6.85;3.30;;;7.50;95.70;;;;;;5056810;28;20104;-71
2022/03/19 02:54:32;;;;;;;8.68;3.40;;;7.50;95.50;;;;;;5056617;28;20021;-69
2022/03/19 02:56:58;;;;;;;5.70;3.20;;;7.60;95.20;;;;;;5056685;28;20470;-71
2022/03/19 02:59:32;;;;;;;6.03;3.28;;;7.60;95.10;;;;;;5056906;28;20025;-71
2022/03/19 03:02:03;;;;;;;7.93;3.33;;;7.70;94.80;;;;;;5038516;28;20035;-68
2022/03/19 03:04:29;;;;;;;5.43;3.28;;;7.70;95.00;;;;;;5057103;28;20025;-70
2022/03/19 03:07:05;;;;;;;5.60;3.53;;;7.70;94.90;;;;;;5056011;28;20049;-71
2022/03/19 03:09:32;;;;;;;6.80;3.38;;;7.60;95.10;;;;;;5056770;28;20536;-70
2022/03/19 03:11:58;;;;;;;8.90;3.33;;;7.60;94.90;;;;;;5056394;28;20029;-71
2022/03/19 03:14:25;;;;;;;6.78;3.47;;;7.60;94.80;;;;;;5056386;28;20551;-70
2022/03/19 03:16:52;;;;;;;7.50;3.58;;;7.60;94.70;;;;;;5056331;28;20025;-71
2022/03/19 03:19:19;;;;;;;6.50;3.63;;;7.70;94.60;;;;;;5056787;28;20025;-70
2022/03/19 03:21:45;;;;;;;8.35;3.78;;;7.70;94.70;;;;;;5056188;28;20482;-69
2022/03/19 03:24:12;;;;;;;5.25;3.05;;;7.70;94.40;;;;;;5056166;28;20028;-69
2022/03/19 03:26:39;;;;;;;5.95;3.30;;;7.70;94.70;;;;;;5056585;28;20116;-70
2022/03/19 03:29:05;;;;;;;7.45;3.65;;;7.60;95.00;;;;;;5056349;28;20078;-70
2022/03/19 03:31:31;;;;;;;8.10;3.35;;;7.60;95.00;;;;;;5056004;28;20049;-70
2022/03/19 03:33:57;;;;;;;6.47;3.22;;;7.60;95.20;;;;;;5055479;28;20033;-71
2022/03/19 03:36:23;;;;;;;10.00;3.67;;;7.50;95.10;;;;;;5055301;28;20056;-70
2022/03/19 03:38:49;;;;;;;5.65;3.50;;;7.50;95.30;;;;;;5055918;28;20504;-69
2022/03/19 03:41:15;;;;;;;11.23;3.90;;;7.40;95.40;;;;;;5055865;28;20071;-69
2022/03/19 03:43:41;;;;;;;7.57;4.20;;;7.40;95.60;;;;;;5055823;28;20060;-70
2022/03/19 03:46:06;;;;;;;8.20;3.67;;;7.40;95.50;;;;;;5055667;28;20064;-70
2022/03/19 03:48:35;;;;;;;7.95;4.20;;;7.40;95.90;;;;;;5055993;28;20055;-71
2022/03/19 03:51:01;;;;;;;6.32;3.63;;;7.30;96.20;;;;;;5055673;28;20028;-71
2022/03/19 03:53:28;;;;;;;8.85;4.20;;;7.30;96.10;;;;;;5055664;28;20021;-70
2022/03/19 03:55:54;;;;;;;8.90;3.75;;;7.30;96.40;;;;;;5055525;28;20107;-70
2022/03/19 03:58:20;;;;;;;7.25;3.50;;;7.20;96.40;;;;;;5055588;28;20111;-69
2022/03/19 04:00:46;;;;;;;7.80;3.22;;;7.30;96.30;;;;;;5056052;28;20051;-68
2022/03/19 04:03:12;;;;;;;9.27;3.53;;;7.30;96.50;;;;;;5055452;28;20017;-71
2022/03/19 04:05:38;;;;;;;10.77;4.13;;;7.20;96.90;;;;;;5055138;28;20080;-70
2022/03/19 04:08:05;;;;;;;6.13;3.63;;;7.20;97.00;;;;;;5055364;28;20040;-69
2022/03/19 04:10:32;;;;;;;9.68;4.40;;;7.20;96.90;;;;;;5055290;28;20025;-70
2022/03/19 04:12:58;;;;;;;7.00;3.90;;;7.10;97.30;;;;;;5055284;28;20017;-71
2022/03/19 04:15:24;;;;;;;8.88;4.38;;;7.10;97.60;;;;;;5055223;28;20021;-70
2022/03/19 04:17:50;;;;;;;7.80;4.18;;;7.10;97.60;;;;;;5055195;28;20032;-70
2022/03/19 04:20:16;;;;;;;8.73;4.50;;;7.10;97.80;;;;;;5055457;28;20025;-70
2022/03/19 04:22:47;;;;;;;9.13;4.05;;;7.00;97.90;;;;;;5055353;28;20029;-70
2022/03/19 04:25:16;;;;;;;10.18;4.18;;;7.00;98.20;;;;;;5055603;28;20036;-69
2022/03/19 04:27:45;;;;;;;9.15;4.13;;;6.90;98.40;;;;;;5054856;28;20086;-70
2022/03/19 04:30:12;;;;;;;9.43;4.63;;;6.90;98.40;;;;;;5054947;28;20450;-70
2022/03/19 04:32:42;;;;;;;11.65;4.43;;;7.10;98.30;;;;;;5054938;28;20066;-69
2022/03/19 04:38:00;;;;;;;8.43;4.00;;;7.10;98.40;;;;;;5054798;28;20043;-70
2022/03/19 04:40:26;;;;;;;8.30;4.25;;;7.00;98.80;;;;;;5054986;28;20027;-70
2022/03/19 04:42:52;;;;;;;10.13;5.25;;;6.90;99.00;;;;;;5054462;28;20047;-70
2022/03/19 04:45:19;;;;;;;9.73;4.72;;;6.90;98.90;;;;;;5054512;28;20445;-71
2022/03/19 04:47:44;;;;;;;8.38;4.38;;;6.90;99.20;;;;;;5054729;28;20025;-70
2022/03/19 04:50:10;;;;;;;8.07;4.25;;;6.80;99.40;;;;;;5036657;28;20116;-71
2022/03/19 04:52:37;;;;;;;9.25;4.32;;;6.80;99.70;;;;;;5054536;28;20048;-70
2022/03/19 04:55:03;;;;;;;7.10;4.40;;;6.80;99.80;;;;;;5054569;28;20469;-70
2022/03/19 04:57:28;;;;;;;9.32;4.72;;;6.70;99.90;;;;;;5054398;28;20398;-71
2022/03/19 04:59:55;;;;;;;8.88;4.32;;;6.60;99.90;;;;;;5054335;28;20025;-69
2022/03/19 05:02:24;;;;;;;9.07;4.93;;;6.60;99.90;;;;;;5054905;28;20055;-70
2022/03/19 05:04:51;;;;;;;11.18;5.07;;;6.50;99.90;;;;;;5036260;28;20029;-71
2022/03/19 05:07:19;;;;;;;10.82;4.70;;;6.50;99.90;;;;;;5054440;28;20052;-70
2022/03/19 05:12:31;;;;;;;11.50;5.20;;;6.40;99.90;;;;;;5054704;28;20032;-70
2022/03/19 05:14:57;;;;;;;10.75;4.75;;;6.30;99.90;;;;;;5054628;28;20021;-70
2022/03/19 05:17:22;;;;;;;8.85;4.45;;;6.30;99.90;;;;;;5054325;28;20052;-68
2022/03/19 05:19:48;;;;;;;10.00;4.78;;;6.30;99.90;;;;;;5054018;28;20032;-71
2022/03/19 05:22:13;;;;;;;11.27;5.20;;;6.30;99.90;;;;;;5053968;28;20034;-70
2022/03/19 05:24:40;;;;;;;12.02;5.22;;;6.30;99.90;;;;;;5053924;28;20493;-70
2022/03/19 05:27:05;;;;;;;12.93;5.13;;;6.20;99.90;;;;;;5053759;28;20112;-70
2022/03/19 05:29:32;;;;;;;9.50;4.57;;;6.30;99.90;;;;;;5054347;28;20106;-70
2022/03/19 05:31:59;;;;;;;11.60;5.13;;;6.30;99.90;;;;;;5054062;28;20021;-70
2022/03/19 05:34:30;;;;;;;9.50;4.80;;;6.30;99.90;;;;;;5054030;28;20044;-71
2022/03/19 05:37:00;;;;;;;9.05;4.85;;;6.30;99.90;;;;;;5053732;28;20033;-69
2022/03/19 05:39:26;;;;;;;;;;;6.30;99.90;;;;;;5054353;28;20032;-70
2022/03/19 05:41:52;;;;;;;10.30;4.95;;;6.30;99.90;;;;;;5053902;28;19908;-70
2022/03/19 05:44:18;;;;;;;9.75;5.35;;;6.20;99.90;;;;;;5053592;28;20087;-70
2022/03/19 05:46:44;;;;;;;12.70;5.65;;;6.20;99.90;;;;;;5053459;28;20025;-69
2022/03/19 05:49:09;;;;;;;16.55;5.68;;;6.10;99.90;;;;;;5053470;28;20027;-70
2022/03/19 05:51:35;;;;;;;12.07;5.40;;;6.20;99.90;;;;;;5053966;28;20021;-70
2022/03/19 05:54:02;;;;;;;13.07;5.47;;;6.20;99.90;;;;;;5053393;28;20021;-70
2022/03/19 05:56:29;;;;;;;10.32;4.97;;;6.20;99.90;;;;;;5053273;28;20017;-70
2022/03/19 05:58:55;;;;;;;12.40;5.63;;;6.10;99.90;;;;;;5052794;28;20036;-69
2022/03/19 06:01:26;;;;;;;13.48;6.03;;;6.10;99.90;;;;;;5053877;28;20021;-70
2022/03/19 06:03:52;;;;;;;10.98;5.43;;;6.10;99.90;;;;;;5053299;28;20085;-70
2022/03/19 06:06:17;;;;;;;12.23;5.93;;;6.10;99.90;;;;;;5053086;28;20072;-71
2022/03/19 06:08:43;;;;;;;10.55;5.63;;;6.20;99.90;;;;;;5053211;28;20095;-70
2022/03/19 06:11:09;;;;;;;11.63;5.50;;;6.20;99.90;;;;;;5053212;28;20079;-70
2022/03/19 06:13:35;;;;;;;10.27;5.40;;;6.30;99.90;;;;;;5053169;28;20060;-71
2022/03/19 06:16:00;;;;;;;10.05;5.60;;;6.30;99.90;;;;;;5053132;28;20029;-70
2022/03/19 06:18:26;;;;;;;11.13;5.85;;;6.30;99.90;;;;;;5053430;28;20078;-69
2022/03/19 06:20:52;;;;;;;15.48;6.60;;;6.30;99.90;;;;;;5053093;28;20033;-70
2022/03/19 06:23:17;;;;;;;12.13;6.10;;;6.40;99.90;;;;;;5053160;28;20025;-69
2022/03/19 06:25:43;;;;;;;11.23;6.18;;;6.50;99.90;;;;;;5053251;28;20021;-71
2022/03/19 06:28:09;;;;;;;13.70;6.10;;;6.50;99.90;;;;;;5053580;28;20457;-69
2022/03/19 06:30:37;;;;;;;13.23;5.90;;;6.60;99.90;;;;;;5053013;28;20025;-69
2022/03/19 06:33:04;;;;;;;14.20;6.43;;;6.70;99.90;;;;;;5053524;28;20029;-70
2022/03/19 06:38:16;;;;;;;12.77;6.72;;;6.90;99.90;;;;;;5052975;28;20401;-70
2022/03/19 06:40:41;;;;;;;12.15;6.60;;;7.00;99.90;;;;;;5052885;28;20021;-70
2022/03/19 06:43:07;;;;;;;13.02;7.18;;;7.20;99.90;;;;;;5052912;28;20029;-70
2022/03/19 06:45:32;;;;;;;14.35;8.18;;;7.30;99.90;;;;;;5052844;28;20025;-71
2022/03/19 06:47:58;;;;;;;13.95;7.15;;;7.40;99.90;;;;;;5052763;28;20037;-71
2022/03/19 06:50:24;;;;;;;17.15;7.78;;;7.50;99.90;;;;;;5052856;28;20017;-70
2022/03/19 06:52:49;;;;;;;14.48;7.00;;;7.60;99.90;;;;;;5053104;28;20017;-70
2022/03/19 06:55:15;;;;;;;12.88;7.25;;;7.70;99.90;;;;;;5052729;28;20021;-70
2022/03/19 06:57:41;;;;;;;12.88;6.97;;;7.90;99.90;;;;;;5053059;28;20033;-70
2022/03/19 07:00:07;;;;;;;13.95;7.07;;;8.10;99.90;;;;;;5052757;28;20028;-69
2022/03/19 07:02:32;;;;;;;17.20;8.13;;;8.30;99.90;;;;;;5052662;28;20477;-70
2022/03/19 07:04:58;;;;;;;14.20;7.47;;;8.40;99.90;;;;;;5052690;28;20025;-70
2022/03/19 07:07:24;;;;;;;12.60;7.40;;;8.60;99.90;;;;;;5053160;28;20028;-70
2022/03/19 07:09:51;;;;;;;14.35;8.18;;;8.70;99.90;;;;;;5055516;28;20029;-70
2022/03/19 07:12:17;;;;;;;16.35;8.00;;;8.90;99.90;;;;;;5038549;28;20048;-70
2022/03/19 07:14:42;;;;;;;15.65;7.85;;;9.00;99.90;;;;;;5056920;28;20067;-71
2022/03/19 07:17:08;;;;;;;15.05;8.45;;;9.20;99.90;;;;;;5056637;28;20028;-69
2022/03/19 07:19:35;;;;;;;15.25;8.18;;;9.30;99.90;;;;;;5056894;28;20442;-71
2022/03/19 07:22:01;;;;;;;17.27;8.93;;;9.40;99.90;;;;;;5056250;28;20017;-69
2022/03/19 07:24:27;;;;;;;15.70;8.68;;;9.60;99.90;;;;;;5056232;28;20199;-70
2022/03/19 07:26:52;;;;;;;18.98;9.98;;;9.90;99.90;;;;;;5056663;28;20017;-70
2022/03/19 07:29:20;;;;;;;16.20;9.15;;;10.10;99.90;;;;;;5056408;28;20021;-71
2022/03/19 07:31:45;;;;;;;17.48;9.18;;;10.20;99.90;;;;;;5056096;28;20120;-71
2022/03/19 07:34:11;;;;;;;16.13;9.30;;;10.40;99.90;;;;;;5056067;28;20029;-70
2022/03/19 07:36:37;;;;;;;19.42;9.73;;;10.50;99.90;;;;;;5055989;28;20032;-70
2022/03/19 07:39:02;;;;;;;21.17;9.73;;;10.70;99.70;;;;;;5055998;28;20396;-70
2022/03/19 07:41:48;;;;;;;18.65;10.10;;;10.80;99.30;;;;;;5055928;28;20031;-70
2022/03/19 07:44:15;;;;;;;21.05;10.20;;;10.90;99.10;;;;;;5055861;28;20370;-70
2022/03/19 07:46:44;;;;;;;17.58;9.88;;;11.00;98.90;;;;;;5055765;28;20017;-70
2022/03/19 07:49:11;;;;;;;19.67;11.05;;;11.10;98.90;;;;;;5055715;28;20021;-71
2022/03/19 07:51:37;;;;;;;19.25;11.02;;;11.40;98.70;;;;;;5055730;28;20017;-70
2022/03/19 07:54:02;;;;;;;19.35;10.10;;;11.70;98.50;;;;;;5056169;28;20036;-69
2022/03/19 07:56:28;;;;;;;19.25;10.82;;;12.00;97.80;;;;;;5055516;28;20504;-70
2022/03/19 07:58:54;;;;;;;22.00;10.95;;;12.30;97.30;;;;;;5055811;28;20033;-70
2022/03/19 08:01:20;;;;;;;19.52;11.02;;;12.60;96.70;;;;;;5055817;28;20045;-72
2022/03/19 08:03:47;;;;;;;21.05;10.82;;;13.00;96.50;;;;;;5055442;28;20512;-71
2022/03/19 08:06:13;;;;;;;19.20;10.93;;;12.80;96.20;;;;;;5055221;28;20073;-70
2022/03/19 08:08:39;;;;;;;23.60;10.90;;;13.20;95.70;;;;;;5055634;28;20028;-70
2022/03/19 08:11:05;;;;;;;20.95;12.10;;;13.70;95.10;;;;;;5055355;28;20104;-70
2022/03/19 08:13:31;;;;;;;20.67;12.07;;;14.00;94.40;;;;;;5055326;28;20093;-71
2022/03/19 08:15:57;;;;;;;19.52;12.20;;;14.40;93.60;;;;;;5055519;28;20025;-70
2022/03/19 08:18:23;;;;;;;25.38;13.10;;;14.70;93.40;;;;;;5055238;28;20075;-68
2022/03/19 08:20:49;;;;;;;21.58;12.82;;;15.20;92.30;;;;;;5054624;28;20386;-71
2022/03/19 08:23:19;;;;;;;21.60;12.32;;;15.30;91.90;;;;;;5055331;28;20040;-71
2022/03/19 08:25:45;;;;;;;;;;;15.40;91.50;;;;;;5055981;28;20470;-71
2022/03/19 08:28:10;;;;;;;20.45;12.98;;;15.70;90.80;;;;;;5055020;28;19904;-70
2022/03/19 08:30:37;;;;;;;22.25;12.77;;;16.00;90.50;;;;;;5055227;28;20387;-70
2022/03/19 08:33:02;;;;;;;23.88;14.38;;;16.00;90.10;;;;;;5055159;28;20053;-70
2022/03/19 08:35:28;;;;;;;21.88;13.68;;;16.40;89.60;;;;;;5054908;28;20055;-70
2022/03/19 08:40:15;;;;;;;24.05;13.98;;;17.30;86.50;;;;;;5054821;28;20611;-69
2022/03/19 08:40:40;;;;;;;21.23;13.43;;;17.50;84.60;;;;;;5054358;28;20025;-70
2022/03/19 08:43:05;;;;;;;22.98;13.60;;;18.00;82.90;;;;;;5055023;28;20017;-70
2022/03/19 08:45:31;;;;;;;22.63;14.30;;;17.60;82.70;;;;;;5054688;28;20409;-70
2022/03/19 08:47:57;;;;;;;23.52;14.60;;;17.80;81.50;;;;;;5055128;28;20374;-71
2022/03/19 08:50:24;;;;;;;20.17;14.40;;;18.30;80.40;;;;;;5054863;28;20095;-71
2022/03/19 08:52:50;;;;;;;22.92;14.15;;;18.40;79.10;;;;;;5054789;28;20028;-71
2022/03/19 08:55:15;;;;;;;23.40;14.82;;;17.80;79.60;;;;;;5054946;28;20017;-69
2022/03/19 08:57:41;;;;;;;24.50;15.50;;;17.50;80.40;;;;;;5054721;28;20082;-72
2022/03/19 09:00:08;;;;;;;22.83;14.73;;;17.80;80.60;;;;;;5054376;28;20029;-70
2022/03/19 09:02:36;;;;;;;30.77;19.63;;;17.90;78.80;;;;;;5054520;28;20397;-71
2022/03/19 09:05:02;;;;;;;21.05;14.38;;;17.80;79.50;;;;;;5054104;28;20053;-71
2022/03/19 09:07:28;;;;;;;25.42;16.17;;;17.90;78.90;;;;;;5054424;28;20078;-70
2022/03/19 09:09:53;;;;;;;23.92;15.82;;;18.00;78.40;;;;;;5054226;28;20436;-71
2022/03/19 09:12:25;;;;;;;24.02;15.40;;;18.80;77.30;;;;;;5054176;28;20390;-71
2022/03/19 09:14:51;;;;;;;27.17;16.92;;;19.20;75.80;;;;;;5054620;28;20029;-70
2022/03/19 09:17:17;;;;;;;21.70;16.15;;;19.70;74.20;;;;;;5054358;28;20095;-71
2022/03/19 09:19:42;;;;;;;24.92;15.52;;;20.00;72.70;;;;;;5054038;28;20477;-70
2022/03/19 09:22:08;;;;;;;23.65;15.82;;;19.30;73.00;;;;;;5054030;28;20025;-72
2022/03/19 09:24:34;;;;;;;26.30;16.80;;;19.90;72.60;;;;;;5054516;28;20142;-72
2022/03/19 09:26:59;;;;;;;22.13;15.27;;;20.40;71.70;;;;;;5053839;28;20481;-72
2022/03/19 09:29:26;;;;;;;24.88;17.02;;;21.10;70.20;;;;;;5053843;28;20036;-71
2022/03/19 09:31:52;;;;;;;22.73;16.33;;;21.00;69.70;;;;;;5053431;28;20025;-71
2022/03/19 09:34:18;;;;;;;21.42;15.25;;;21.10;68.20;;;;;;5053311;28;20060;-71
2022/03/19 09:36:46;;;;;;;23.73;15.65;;;21.60;67.80;;;;;;5053743;28;20485;-72
2022/03/19 09:39:15;;;;;;;22.55;15.70;;;22.70;65.00;;;;;;5053978;28;20035;-72
2022/03/19 09:41:44;;;;;;;24.73;17.30;;;22.50;64.00;;;;;;5053918;28;20378;-70
2022/03/19 09:44:16;;;;;;;25.65;17.20;;;23.20;62.90;;;;;;5054145;28;20029;-72
2022/03/19 09:46:45;;;;;;;22.63;16.70;;;23.00;61.90;;;;;;5053783;28;20032;-70
2022/03/19 09:49:11;;;;;;;25.40;16.67;;;22.50;62.50;;;;;;5053512;28;20021;-70
2022/03/19 09:51:40;;;;;;;22.55;16.70;;;22.20;62.00;;;;;;5053517;28;20029;-71
2022/03/19 09:54:07;;;;;;;23.25;16.67;;;22.20;62.40;;;;;;5053502;28;20087;-70
2022/03/19 09:56:33;;;;;;;22.50;16.13;;;22.30;61.50;;;;;;5053327;28;20032;-73
2022/03/19 09:58:59;;;;;;;23.33;16.70;;;22.90;61.40;;;;;;5053639;28;20036;-72
2022/03/19 10:01:25;;;;;;;23.98;17.45;;;23.00;60.80;;;;;;5035462;28;20397;-70
2022/03/19 10:03:50;;;;;;;25.92;17.42;;;23.40;59.90;;;;;;5053252;28;20478;-69
2022/03/19 10:09:01;;;;;;;24.85;17.73;;;24.00;58.40;;;;;;5053084;28;20028;-73
2022/03/19 10:11:31;;;;;;;24.45;17.92;;;23.10;59.40;;;;;;5053250;28;20025;-72
2022/03/19 10:13:58;;;;;;;23.52;17.45;;;22.60;60.00;;;;;;5053488;28;20025;-73
2022/03/19 10:16:25;;;;;;;24.92;16.80;;;23.40;58.40;;;;;;5053170;28;20021;-71
2022/03/19 10:19:09;;;;;;;25.13;18.13;;;23.30;58.40;;;;;;5053189;28;20025;-71
2022/03/19 10:21:37;;;;;;;25.00;17.30;;;23.60;57.90;;;;;;5053316;28;20047;-71
2022/03/19 10:24:06;;;;;;;24.88;18.27;;;24.20;57.20;;;;;;5053028;28;20029;-71
2022/03/19 10:26:34;;;;;;;27.85;19.08;;;24.40;56.70;;;;;;5053266;28;20381;-71
2022/03/19 10:29:05;;;;;;;24.90;17.10;;;24.00;57.20;;;;;;5053375;28;20036;-74
2022/03/19 10:31:35;;;;;;;25.50;18.58;;;23.80;57.00;;;;;;5052867;28;20086;-71
2022/03/19 10:34:02;;;;;;;24.15;18.15;;;23.30;57.40;;;;;;5053587;28;20021;-71
2022/03/19 10:36:37;;;;;;;26.30;18.50;;;22.20;59.10;;;;;;5053545;28;20029;-71
2022/03/19 10:39:26;;;;;;;27.40;18.08;;;21.60;59.70;;;;;;5053516;28;20052;-70
2022/03/19 10:41:57;;;;;;;23.50;18.13;;;21.00;60.90;;;;;;5053290;28;20107;-71
2022/03/19 10:44:28;;;;;;;24.48;17.65;;;21.40;61.00;;;;;;5054563;28;20037;-71
2022/03/19 10:46:58;;;;;;;27.33;18.90;;;21.50;60.60;;;;;;5056868;28;20024;-72
2022/03/19 10:49:29;;;;;;;26.38;18.95;;;22.70;59.70;;;;;;5038805;28;20028;-71
2022/03/19 10:52:01;;;;;;;24.77;18.80;;;23.60;57.90;;;;;;5056754;28;20519;-71
2022/03/19 10:54:29;;;;;;;33.20;21.98;;;23.90;56.90;;;;;;5056648;28;20492;-71
2022/03/19 10:56:55;;;;;;;25.20;19.45;;;24.30;56.80;;;;;;5056967;28;20025;-72
2022/03/19 10:59:21;;;;;;;25.35;19.58;;;24.60;55.70;;;;;;5056674;28;20025;-71
2022/03/19 11:01:49;;;;;;;28.65;20.38;;;25.00;55.90;;;;;;5056620;28;20070;-71
2022/03/19 11:04:15;;;;;;;26.25;19.20;;;25.20;55.10;;;;;;5056904;28;20029;-71
2022/03/19 11:06:43;;;;;;;24.95;18.67;;;25.10;54.90;;;;;;5056085;28;20115;-71
2022/03/19 11:09:11;;;;;;;26.20;19.48;;;25.70;54.60;;;;;;5056783;28;20021;-70
2022/03/19 11:11:50;;;;;;;27.60;19.73;;;24.90;54.80;;;;;;5056471;28;20101;-72
2022/03/19 11:14:23;;;;;;;27.97;20.60;;;24.20;56.00;;;;;;5056777;28;20017;-71
2022/03/19 11:17:25;;;;;;;25.80;19.65;;;24.40;56.10;;;;;;5056481;28;20032;-72
2022/03/19 11:19:56;;;;;;;27.98;20.85;;;24.80;55.10;;;;;;5038180;28;20442;-71
2022/03/19 11:22:22;;;;;;;29.98;19.95;;;24.80;55.40;;;;;;5056797;28;20393;-72
2022/03/19 11:25:00;;;;;;;26.92;20.13;;;25.50;54.30;;;;;;5056250;28;20507;-72
2022/03/19 11:27:29;;;;;;;26.98;20.40;;;25.40;54.70;;;;;;5056394;28;20033;-72
2022/03/19 11:29:59;;;;;;;26.25;20.85;;;24.90;54.60;;;;;;5056108;28;20481;-70
2022/03/19 11:32:25;;;;;;;28.52;20.25;;;24.50;55.00;;;;;;5056079;28;20029;-71
2022/03/19 11:35:02;;;;;;;27.52;21.02;;;24.70;54.80;;;;;;5056324;28;20381;-71
2022/03/19 11:38:01;;;;;;;27.30;22.23;;;23.90;55.50;;;;;;5055994;28;20036;-70
2022/03/19 11:40:31;;;;;;;29.70;21.67;;;22.10;58.40;;;;;;5044371;28;20044;-71
2022/03/19 11:42:57;;;;;;;28.88;20.52;;;21.70;59.60;;;;;;5056157;28;20087;-72
2022/03/19 11:45:23;;;;;;;29.45;21.77;;;21.20;60.60;;;;;;5055684;28;20103;-72
2022/03/19 11:47:49;;;;;;;29.05;20.75;;;21.10;61.50;;;;;;5055710;28;20068;-72
2022/03/19 11:50:20;;;;;;;31.13;21.45;;;21.30;60.70;;;;;;5055977;28;20044;-72
2022/03/19 11:52:46;;;;;;;28.88;21.70;;;20.80;61.10;;;;;;5055673;28;20053;-71
2022/03/19 11:55:16;;;;;;;27.77;19.63;;;20.40;62.50;;;;;;5054854;28;20049;-70
2022/03/19 11:57:58;;;;;;;29.35;21.55;;;19.90;62.80;;;;;;5055470;28;20067;-72
2022/03/19 12:00:32;;;;;;;30.90;22.15;;;19.60;64.00;;;;;;5055834;28;20025;-71
2022/03/19 12:03:13;;;;;;;30.48;20.83;;;19.30;65.30;;;;;;5055592;28;20056;-71
2022/03/19 12:05:44;;;;;;;29.80;22.40;;;19.40;64.60;;;;;;5055481;28;20059;-72
2022/03/19 12:08:17;;;;;;;34.22;24.33;;;19.30;66.20;;;;;;5055596;28;20029;-72
2022/03/19 12:11:16;;;;;;;31.20;22.25;;;19.50;65.30;;;;;;5055384;28;20497;-71
2022/03/19 12:13:47;;;;;;;33.20;21.93;;;20.20;63.90;;;;;;5037251;28;20032;-71
2022/03/19 12:16:16;;;;;;;31.08;22.25;;;19.90;64.00;;;;;;5055583;28;20025;-70
2022/03/19 12:18:47;;;;;;;31.38;23.10;;;19.10;65.00;;;;;;5055255;28;20412;-72
2022/03/19 12:21:21;;;;;;;32.88;23.17;;;18.80;66.70;;;;;;5055495;28;20033;-72
2022/03/19 12:24:09;;;;;;;31.25;22.35;;;19.20;66.10;;;;;;5055417;28;20056;-71
2022/03/19 12:26:44;;;;;;;32.22;22.20;;;19.10;66.40;;;;;;5036829;28;20112;-71
2022/03/19 12:29:13;;;;;;;29.13;20.85;;;19.40;66.70;;;;;;5055063;28;20021;-72
2022/03/19 12:31:50;;;;;;;31.13;21.40;;;19.60;65.70;;;;;;5055570;28;20017;-72
2022/03/19 12:34:17;;;;;;;33.53;21.65;;;19.60;66.80;;;;;;5055226;28;20017;-73
2022/03/19 12:36:44;;;;;;;30.55;21.33;;;19.70;65.80;;;;;;5055206;28;20424;-72
2022/03/19 12:39:10;;;;;;;33.08;22.67;;;19.30;67.10;;;;;;5054846;28;20049;-72
2022/03/19 12:41:36;;;;;;;30.67;21.80;;;19.20;67.70;;;;;;5054817;28;20060;-72
2022/03/19 12:44:07;;;;;;;35.72;23.40;;;18.90;68.10;;;;;;5054783;28;20037;-72
2022/03/19 12:46:36;;;;;;;33.47;23.10;;;18.40;69.40;;;;;;5054621;28;20025;-72
2022/03/19 12:49:10;;;;;;;32.33;21.80;;;18.00;70.30;;;;;;5054935;28;20053;-71
2022/03/19 12:51:38;;;;;;;33.92;22.38;;;18.10;70.90;;;;;;5054562;28;20017;-72
2022/03/19 12:54:17;;;;;;;31.15;22.38;;;18.10;71.30;;;;;;5054552;28;20031;-72
2022/03/19 12:56:42;;;;;;;34.20;23.50;;;18.30;71.40;;;;;;5054400;28;20036;-72
2022/03/19 12:59:26;;;;;;;34.00;23.40;;;18.10;71.10;;;;;;5054989;28;20029;-71